createdAt,value
2018-07-07T00:00:22.104Z,97249.00
2018-07-07T00:02:50.899Z,97252.00
2018-07-07T00:05:28.972Z,97259.00
2018-07-07T00:08:00.860Z,97260.00
2018-07-07T00:10:35.765Z,97248.00
2018-07-07T00:13:07.762Z,97248.00
2018-07-07T00:15:37.414Z,97241.00
2018-07-07T00:18:06.832Z,97242.00
2018-07-07T00:20:40.495Z,97242.00
2018-07-07T00:23:10.560Z,97253.00
2018-07-07T00:25:41.222Z,97241.00
2018-07-07T00:28:15.727Z,97238.00
2018-07-07T00:30:44.112Z,97237.00
2018-07-07T00:33:12.096Z,97237.00
2018-07-07T00:35:40.037Z,97238.00
2018-07-07T00:38:07.944Z,97232.00
2018-07-07T00:40:35.899Z,97235.00
2018-07-07T00:43:03.859Z,97226.00
2018-07-07T00:45:31.814Z,97235.00
2018-07-07T00:47:59.730Z,97238.00
2018-07-07T00:50:27.681Z,97224.00
2018-07-07T00:52:55.625Z,97236.00
2018-07-07T00:55:23.560Z,97230.00
2018-07-07T00:57:51.482Z,97234.00
2018-07-07T01:00:19.717Z,97234.00
2018-07-07T01:02:47.652Z,97245.00
2018-07-07T01:05:34.030Z,97235.00
2018-07-07T01:08:01.993Z,97246.00
2018-07-07T01:10:29.948Z,97239.00
2018-07-07T01:12:57.876Z,97254.00
2018-07-07T01:15:25.814Z,97237.00
2018-07-07T01:17:53.723Z,97237.00
2018-07-07T01:20:21.663Z,97236.00
2018-07-07T01:22:49.577Z,97239.00
2018-07-07T01:25:17.534Z,97239.00
2018-07-07T01:27:45.532Z,97244.00
2018-07-07T01:30:13.518Z,97239.00
2018-07-07T01:32:41.449Z,97252.00
2018-07-07T01:35:09.412Z,97242.00
2018-07-07T01:37:37.344Z,97239.00
2018-07-07T01:40:05.328Z,97241.00
2018-07-07T01:42:33.297Z,97252.00
2018-07-07T01:45:01.255Z,97237.00
2018-07-07T01:47:29.187Z,97242.00
2018-07-07T01:49:57.165Z,97247.00
2018-07-07T01:52:25.084Z,97245.00
2018-07-07T01:54:53.052Z,97246.00
2018-07-07T01:57:20.973Z,97241.00
2018-07-07T01:59:48.923Z,97248.00
2018-07-07T02:02:16.825Z,97252.00
2018-07-07T02:04:44.969Z,97247.00
2018-07-07T02:07:12.909Z,97245.00
2018-07-07T02:09:40.937Z,97246.00
2018-07-07T02:12:08.876Z,97245.00
2018-07-07T02:14:36.833Z,97248.00
2018-07-07T02:17:04.994Z,97244.00
2018-07-07T02:19:33.032Z,97249.00
2018-07-07T02:22:00.963Z,97240.00
2018-07-07T02:24:28.873Z,97241.00
2018-07-07T02:26:56.820Z,97247.00
2018-07-07T02:29:24.783Z,97248.00
2018-07-07T02:31:52.669Z,97242.00
2018-07-07T02:34:20.639Z,97256.00
2018-07-07T02:36:48.556Z,97237.00
2018-07-07T02:39:16.512Z,97245.00
2018-07-07T02:41:44.471Z,97236.00
2018-07-07T02:44:12.423Z,97242.00
2018-07-07T02:46:40.386Z,97239.00
2018-07-07T02:49:08.307Z,97237.00
2018-07-07T02:51:36.269Z,97235.00
2018-07-07T02:54:04.212Z,97238.00
2018-07-07T02:56:32.209Z,97232.00
2018-07-07T02:59:00.135Z,97233.00
2018-07-07T03:01:28.052Z,97235.00
2018-07-07T03:03:56.037Z,97232.00
2018-07-07T03:06:23.949Z,97235.00
2018-07-07T03:08:51.888Z,97236.00
2018-07-07T03:11:19.836Z,97238.00
2018-07-07T03:13:47.904Z,97240.00
2018-07-07T03:16:15.890Z,97242.00
2018-07-07T03:18:43.894Z,97246.00
2018-07-07T03:21:11.807Z,97242.00
2018-07-07T03:23:39.843Z,97247.00
2018-07-07T03:26:07.750Z,97239.00
2018-07-07T03:28:35.758Z,97240.00
2018-07-07T03:31:03.720Z,97233.00
2018-07-07T03:33:31.636Z,97246.00
2018-07-07T03:35:59.595Z,97246.00
2018-07-07T03:38:27.498Z,97246.00
2018-07-07T03:40:55.469Z,97247.00
2018-07-07T03:43:23.412Z,97255.00
2018-07-07T03:45:51.351Z,97243.00
2018-07-07T03:48:19.297Z,97257.00
2018-07-07T03:50:47.222Z,97264.00
2018-07-07T03:53:15.159Z,97263.00
2018-07-07T03:55:43.095Z,97259.00
2018-07-07T03:58:11.030Z,97261.00
2018-07-07T04:00:39.063Z,97264.00
2018-07-07T04:03:07.024Z,97262.00
2018-07-07T04:05:34.939Z,97261.00
2018-07-07T04:08:02.856Z,97263.00
2018-07-07T04:10:30.773Z,97249.00
2018-07-07T04:12:58.728Z,97253.00
2018-07-07T04:15:26.655Z,97247.00
2018-07-07T04:17:54.630Z,97249.00
2018-07-07T04:20:22.577Z,97252.00
2018-07-07T04:22:50.496Z,97252.00
2018-07-07T04:25:18.534Z,97255.00
2018-07-07T04:27:46.457Z,97249.00
2018-07-07T04:30:14.509Z,97246.00
2018-07-07T04:32:42.613Z,97259.00
2018-07-07T04:35:10.595Z,97256.00
2018-07-07T04:37:38.638Z,97260.00
2018-07-07T04:40:06.598Z,97252.00
2018-07-07T04:42:34.613Z,97247.00
2018-07-07T04:45:02.621Z,97245.00
2018-07-07T04:47:30.553Z,97249.00
2018-07-07T04:49:58.493Z,97252.00
2018-07-07T04:52:26.516Z,97249.00
2018-07-07T04:54:54.484Z,97253.00
2018-07-07T04:57:22.406Z,97256.00
2018-07-07T04:59:50.369Z,97259.00
2018-07-07T05:02:18.568Z,97260.00
2018-07-07T05:04:46.725Z,97264.00
2018-07-07T05:07:14.708Z,97269.00
2018-07-07T05:09:42.717Z,97269.00
2018-07-07T05:12:10.853Z,97268.00
2018-07-07T05:14:39.007Z,97270.00
2018-07-07T05:17:07.275Z,97272.00
2018-07-07T05:19:35.231Z,97274.00
2018-07-07T05:22:03.219Z,97272.00
2018-07-07T05:24:31.304Z,97269.00
2018-07-07T05:26:59.215Z,97268.00
2018-07-07T05:29:27.184Z,97268.00
2018-07-07T05:31:55.269Z,97267.00
2018-07-07T05:34:23.065Z,97281.00
2018-07-07T05:36:51.031Z,97275.00
2018-07-07T05:39:19.003Z,97265.00
2018-07-07T05:41:46.962Z,97272.00
2018-07-07T05:44:14.900Z,97277.00
2018-07-07T05:46:42.851Z,97267.00
2018-07-07T05:49:10.771Z,97267.00
2018-07-07T05:51:38.892Z,97276.00
2018-07-07T05:54:08.336Z,97274.00
2018-07-07T05:56:37.791Z,97268.00
2018-07-07T05:59:05.777Z,97266.00
2018-07-07T06:01:33.781Z,97267.00
2018-07-07T06:04:01.748Z,97267.00
2018-07-07T06:06:29.705Z,97272.00
2018-07-07T06:08:57.774Z,97274.00
2018-07-07T06:11:25.724Z,97274.00
2018-07-07T06:13:53.659Z,97279.00
2018-07-07T06:16:21.623Z,97277.00
2018-07-07T06:18:49.583Z,97277.00
2018-07-07T06:21:17.662Z,97282.00
2018-07-07T06:23:45.607Z,97282.00
2018-07-07T06:26:13.639Z,97287.00
2018-07-07T06:28:41.622Z,97279.00
2018-07-07T06:31:09.545Z,97279.00
2018-07-07T06:33:37.525Z,97280.00
2018-07-07T06:36:05.601Z,97279.00
2018-07-07T06:38:33.551Z,97285.00
2018-07-07T06:41:01.544Z,97286.00
2018-07-07T06:43:29.474Z,97282.00
2018-07-07T06:45:57.462Z,97289.00
2018-07-07T06:48:25.388Z,97292.00
2018-07-07T06:50:53.346Z,97293.00
2018-07-07T06:53:21.285Z,97294.00
2018-07-07T06:55:49.236Z,97293.00
2018-07-07T06:58:17.211Z,97289.00
2018-07-07T07:00:45.169Z,97288.00
2018-07-07T07:03:13.090Z,97284.00
2018-07-07T07:05:41.154Z,97291.00
2018-07-07T07:08:09.105Z,97287.00
2018-07-07T07:10:37.072Z,97293.00
2018-07-07T07:13:05.089Z,97291.00
2018-07-07T07:15:33.117Z,97290.00
2018-07-07T07:18:01.044Z,97284.00
2018-07-07T07:20:29.002Z,97292.00
2018-07-07T07:22:57.209Z,97297.00
2018-07-07T07:25:25.186Z,97292.00
2018-07-07T07:27:53.149Z,97293.00
2018-07-07T07:30:21.099Z,97285.00
2018-07-07T07:32:48.998Z,97288.00
2018-07-07T07:35:16.946Z,97279.00
2018-07-07T07:37:44.872Z,97277.00
2018-07-07T07:40:12.833Z,97283.00
2018-07-07T07:42:40.764Z,97282.00
2018-07-07T07:45:08.702Z,97286.00
2018-07-07T07:47:36.630Z,97287.00
2018-07-07T07:50:04.600Z,97285.00
2018-07-07T07:52:32.541Z,97279.00
2018-07-07T07:55:00.497Z,97276.00
2018-07-07T07:57:28.557Z,97282.00
2018-07-07T07:59:57.151Z,97283.00
2018-07-07T08:02:25.555Z,97283.00
2018-07-07T08:04:53.481Z,97284.00
2018-07-07T08:07:21.431Z,97283.00
2018-07-07T08:09:49.363Z,97296.00
2018-07-07T08:12:17.305Z,97295.00
2018-07-07T08:14:45.234Z,97292.00
2018-07-07T08:17:13.197Z,97292.00
2018-07-07T08:19:41.116Z,97284.00
2018-07-07T08:22:09.057Z,97291.00
2018-07-07T08:24:37.000Z,97291.00
2018-07-07T08:27:04.998Z,97289.00
2018-07-07T08:29:32.976Z,97291.00
2018-07-07T08:32:00.925Z,97284.00
2018-07-07T08:34:28.928Z,97288.00
2018-07-07T08:36:56.905Z,97287.00
2018-07-07T08:39:24.914Z,97292.00
2018-07-07T08:41:53.058Z,97287.00
2018-07-07T08:44:20.925Z,97295.00
2018-07-07T08:46:48.912Z,97296.00
2018-07-07T08:49:16.868Z,97299.00
2018-07-07T08:51:44.834Z,97291.00
2018-07-07T08:54:13.171Z,97285.00
2018-07-07T08:56:41.236Z,97291.00
2018-07-07T08:59:09.176Z,97285.00
2018-07-07T09:01:37.133Z,97294.00
2018-07-07T09:04:05.049Z,97292.00
2018-07-07T09:06:33.017Z,97286.00
2018-07-07T09:09:00.965Z,97283.00
2018-07-07T09:11:28.948Z,97278.00
2018-07-07T09:13:56.886Z,97276.00
2018-07-07T09:16:24.864Z,97282.00
2018-07-07T09:18:52.813Z,97282.00
2018-07-07T09:21:20.805Z,97280.00
2018-07-07T09:23:48.644Z,97281.00
2018-07-07T09:26:16.624Z,97275.00
2018-07-07T09:28:44.625Z,97282.00
2018-07-07T09:31:12.597Z,97272.00
2018-07-07T09:33:40.645Z,97277.00
2018-07-07T09:36:08.628Z,97269.00
2018-07-07T09:38:36.545Z,97284.00
2018-07-07T09:41:04.572Z,97278.00
2018-07-07T09:43:32.524Z,97272.00
2018-07-07T09:46:00.502Z,97269.00
2018-07-07T09:48:28.432Z,97266.00
2018-07-07T09:50:56.416Z,97262.00
2018-07-07T09:53:24.319Z,97263.00
2018-07-07T09:55:52.277Z,97254.00
2018-07-07T09:58:20.248Z,97260.00
2018-07-07T10:00:48.186Z,97253.00
2018-07-07T10:03:16.130Z,97259.00
2018-07-07T10:05:44.068Z,97258.00
2018-07-07T10:08:12.012Z,97258.00
2018-07-07T10:10:39.932Z,97261.00
2018-07-07T10:13:07.888Z,97256.00
2018-07-07T10:15:35.923Z,97248.00
2018-07-07T10:18:04.176Z,97247.00
2018-07-07T10:20:32.154Z,97256.00
2018-07-07T10:23:00.082Z,97247.00
2018-07-07T10:25:28.033Z,97241.00
2018-07-07T10:27:55.983Z,97243.00
2018-07-07T10:30:23.894Z,97242.00
2018-07-07T10:32:51.848Z,97249.00
2018-07-07T10:35:19.781Z,97239.00
2018-07-07T10:37:47.734Z,97253.00
2018-07-07T10:40:15.663Z,97245.00
2018-07-07T10:42:43.650Z,97255.00
2018-07-07T10:45:11.674Z,97233.00
2018-07-07T10:47:39.614Z,97238.00
2018-07-07T10:50:07.602Z,97234.00
2018-07-07T10:52:35.527Z,97233.00
2018-07-07T10:55:03.469Z,97232.00
2018-07-07T10:57:31.425Z,97235.00
2018-07-07T10:59:59.348Z,97231.00
2018-07-07T11:02:27.335Z,97229.00
2018-07-07T11:04:55.261Z,97221.00
2018-07-07T11:07:23.184Z,97221.00
2018-07-07T11:09:51.131Z,97226.00
2018-07-07T11:12:19.036Z,97219.00
2018-07-07T11:14:46.972Z,97215.00
2018-07-07T11:17:14.918Z,97213.00
2018-07-07T11:19:42.891Z,97211.00
2018-07-07T11:22:10.805Z,97199.00
2018-07-07T11:24:38.773Z,97201.00
2018-07-07T11:27:06.701Z,97208.00
2018-07-07T11:29:34.648Z,97215.00
2018-07-07T11:32:02.625Z,97200.00
2018-07-07T11:34:30.548Z,97195.00
2018-07-07T11:36:58.574Z,97199.00
2018-07-07T11:39:26.466Z,97187.00
2018-07-07T11:41:54.418Z,97196.00
2018-07-07T11:44:22.376Z,97182.00
2018-07-07T11:46:50.326Z,97183.00
2018-07-07T11:49:18.270Z,97184.00
2018-07-07T11:51:46.748Z,97182.00
2018-07-07T11:54:14.784Z,97182.00
2018-07-07T11:56:42.708Z,97171.00
2018-07-07T11:59:10.670Z,97196.00
2018-07-07T12:01:38.592Z,97205.00
2018-07-07T12:04:06.605Z,97164.00
2018-07-07T12:06:34.588Z,97167.00
2018-07-07T12:09:02.607Z,97167.00
2018-07-07T12:11:30.871Z,97190.00
2018-07-07T12:13:58.729Z,97199.00
2018-07-07T12:16:26.668Z,97187.00
2018-07-07T12:18:54.609Z,97204.00
2018-07-07T12:21:22.548Z,97165.00
2018-07-07T12:23:50.487Z,97170.00
2018-07-07T12:26:18.463Z,97156.00
2018-07-07T12:28:47.302Z,97177.00
2018-07-07T12:31:15.255Z,97152.00
2018-07-07T12:33:43.196Z,97152.00
2018-07-07T12:36:11.123Z,97156.00
2018-07-07T12:38:44.268Z,97155.00
2018-07-07T12:41:13.140Z,97182.00
2018-07-07T12:43:41.510Z,97152.00
2018-07-07T12:46:09.548Z,97185.00
2018-07-07T12:48:37.998Z,97158.00
2018-07-07T12:51:07.119Z,97161.00
2018-07-07T12:53:35.440Z,97140.00
2018-07-07T12:56:04.271Z,97181.00
2018-07-07T12:58:32.977Z,97129.00
2018-07-07T13:01:01.468Z,97123.00
2018-07-07T13:03:29.758Z,97113.00
2018-07-07T13:05:58.176Z,97114.00
2018-07-07T13:08:26.638Z,97115.00
2018-07-07T13:10:55.153Z,97124.00
2018-07-07T13:13:23.376Z,97123.00
2018-07-07T13:15:51.585Z,97124.00
2018-07-07T13:18:19.767Z,97121.00
2018-07-07T13:20:50.606Z,97131.00
2018-07-07T13:23:18.887Z,97128.00
2018-07-07T13:25:47.808Z,97130.00
2018-07-07T13:28:15.943Z,97122.00
2018-07-07T13:30:44.356Z,97126.00
2018-07-07T13:33:12.798Z,97124.00
2018-07-07T13:35:41.413Z,97125.00
2018-07-07T13:38:10.122Z,97129.00
2018-07-07T13:40:38.207Z,97130.00
2018-07-07T13:43:06.140Z,97131.00
2018-07-07T13:45:34.184Z,97133.00
2018-07-07T13:48:02.115Z,97134.00
2018-07-07T13:50:30.073Z,97122.00
2018-07-07T13:52:58.027Z,97115.00
2018-07-07T13:55:26.137Z,97167.00
2018-07-07T13:57:54.055Z,97115.00
2018-07-07T14:00:21.993Z,97123.00
2018-07-07T14:02:49.934Z,97115.00
2018-07-07T14:05:17.963Z,97111.00
2018-07-07T14:07:45.888Z,97114.00
2018-07-07T14:10:13.867Z,97109.00
2018-07-07T14:12:41.842Z,97108.00
2018-07-07T14:15:09.769Z,97109.00
2018-07-07T14:17:37.720Z,97102.00
2018-07-07T14:20:05.844Z,97106.00
2018-07-07T14:22:33.798Z,97099.00
2018-07-07T14:25:01.790Z,97103.00
2018-07-07T14:27:29.708Z,97146.00
2018-07-07T14:29:57.646Z,97123.00
2018-07-07T14:32:25.617Z,97136.00
2018-07-07T14:34:53.544Z,97114.00
2018-07-07T14:37:21.507Z,97145.00
2018-07-07T14:40:10.719Z,97136.00
2018-07-07T14:42:52.791Z,97136.00
2018-07-07T14:45:31.179Z,97131.00
2018-07-07T14:48:00.403Z,97122.00
2018-07-07T14:50:28.666Z,97032.00
2018-07-07T14:52:56.693Z,96793.00
2018-07-07T14:55:26.588Z,96777.00
2018-07-07T14:57:54.565Z,96780.00
2018-07-07T15:00:26.490Z,96775.00
2018-07-07T15:02:55.346Z,96770.00
2018-07-07T15:05:23.315Z,96775.00
2018-07-07T15:07:51.551Z,96789.00
2018-07-07T15:10:19.504Z,96788.00
2018-07-07T15:12:48.040Z,96781.00
2018-07-07T15:15:16.147Z,96777.00
2018-07-07T15:17:44.971Z,96826.00
2018-07-07T15:20:12.917Z,97091.00
2018-07-07T15:22:40.858Z,97090.00
2018-07-07T15:25:08.867Z,97099.00
2018-07-07T15:27:36.783Z,97101.00
2018-07-07T15:30:06.208Z,97101.00
2018-07-07T15:32:34.520Z,97106.00
2018-07-07T15:35:02.478Z,97101.00
2018-07-07T15:37:30.402Z,97100.00
2018-07-07T15:39:58.347Z,97096.00
2018-07-07T15:42:26.341Z,97101.00
2018-07-07T15:44:54.272Z,97113.00
2018-07-07T15:47:22.243Z,97092.00
2018-07-07T15:49:50.160Z,97089.00
2018-07-07T15:52:18.104Z,97080.00
2018-07-07T15:54:46.086Z,97078.00
2018-07-07T15:59:41.969Z,97083.00
2018-07-07T16:02:09.894Z,97083.00
2018-07-07T16:04:37.841Z,97096.00
2018-07-07T16:07:06.135Z,97143.00
2018-07-07T16:09:34.067Z,97146.00
2018-07-07T16:12:02.017Z,97143.00
2018-07-07T16:14:29.941Z,97143.00
2018-07-07T16:16:57.852Z,97136.00
2018-07-07T16:19:25.795Z,97136.00
2018-07-07T16:21:53.848Z,97136.00
2018-07-07T16:24:21.700Z,97134.00
2018-07-07T16:26:49.613Z,97132.00
2018-07-07T16:29:17.515Z,97129.00
2018-07-07T16:31:45.487Z,97126.00
2018-07-07T16:34:13.417Z,97121.00
2018-07-07T16:36:41.382Z,97079.00
2018-07-07T16:39:09.303Z,97051.00
2018-07-07T16:41:37.231Z,97048.00
2018-07-07T16:44:05.249Z,97044.00
2018-07-07T16:46:33.723Z,97036.00
2018-07-07T16:49:02.374Z,97042.00
2018-07-07T16:51:30.546Z,97048.00
2018-07-07T16:53:59.571Z,97044.00
2018-07-07T16:56:27.479Z,97042.00
2018-07-07T16:58:55.465Z,97051.00
2018-07-07T17:01:23.423Z,97051.00
2018-07-07T17:03:52.253Z,97045.00
2018-07-07T17:06:20.224Z,97053.00
2018-07-07T17:08:48.180Z,97076.00
2018-07-07T17:11:16.130Z,97069.00
2018-07-07T17:13:44.096Z,97050.00
2018-07-07T17:16:12.033Z,97051.00
2018-07-07T17:18:39.984Z,97053.00
2018-07-07T17:21:07.967Z,97056.00
2018-07-07T17:23:35.938Z,97062.00
2018-07-07T17:26:04.963Z,97065.00
2018-07-07T17:28:32.916Z,97097.00
2018-07-07T17:31:01.970Z,97125.00
2018-07-07T17:33:29.884Z,97114.00
2018-07-07T17:35:58.303Z,97123.00
2018-07-07T17:38:27.071Z,97119.00
2018-07-07T17:40:54.978Z,97127.00
2018-07-07T17:43:23.108Z,97132.00
2018-07-07T17:45:51.998Z,97133.00
2018-07-07T17:48:19.905Z,97127.00
2018-07-07T17:50:47.860Z,97139.00
2018-07-07T17:53:16.124Z,97140.00
2018-07-07T17:55:44.057Z,97140.00
2018-07-07T17:58:12.212Z,97132.00
2018-07-07T18:00:40.246Z,97134.00
2018-07-07T18:03:08.165Z,97134.00
2018-07-07T18:05:36.133Z,97135.00
2018-07-07T18:08:04.221Z,97131.00
2018-07-07T18:10:32.159Z,97133.00
2018-07-07T18:13:00.131Z,97134.00
2018-07-07T18:15:28.147Z,97130.00
2018-07-07T18:17:56.075Z,97133.00
2018-07-07T18:20:24.089Z,97137.00
2018-07-07T18:22:51.986Z,97134.00
2018-07-07T18:25:19.904Z,97131.00
2018-07-07T18:27:47.894Z,97135.00
2018-07-07T18:30:15.805Z,97139.00
2018-07-07T18:32:43.742Z,97136.00
2018-07-07T18:35:11.709Z,97128.00
2018-07-07T18:37:39.627Z,97142.00
2018-07-07T18:40:07.820Z,97143.00
2018-07-07T18:42:35.813Z,97139.00
2018-07-07T18:45:03.821Z,97139.00
2018-07-07T18:47:31.782Z,97137.00
2018-07-07T18:49:59.744Z,97143.00
2018-07-07T18:52:27.708Z,97138.00
2018-07-07T18:54:55.632Z,97144.00
2018-07-07T18:57:23.632Z,97145.00
2018-07-07T18:59:51.563Z,97146.00
2018-07-07T19:02:19.617Z,97137.00
2018-07-07T19:04:47.600Z,97139.00
2018-07-07T19:07:15.519Z,97136.00
2018-07-07T19:09:43.459Z,97136.00
2018-07-07T19:12:11.469Z,97142.00
2018-07-07T19:14:39.384Z,97143.00
2018-07-07T19:17:07.307Z,97143.00
2018-07-07T19:19:35.281Z,97143.00
2018-07-07T19:22:21.289Z,97147.00
2018-07-07T19:25:07.487Z,97144.00
2018-07-07T19:27:36.415Z,97154.00
2018-07-07T19:30:04.401Z,97148.00
2018-07-07T19:32:57.284Z,97160.00
2018-07-07T19:35:46.630Z,97154.00
2018-07-07T19:38:15.229Z,97156.00
2018-07-07T19:40:46.966Z,97158.00
2018-07-07T19:43:15.762Z,97164.00
2018-07-07T19:45:47.977Z,97168.00
2018-07-07T19:48:16.670Z,97167.00
2018-07-07T19:50:44.925Z,97166.00
2018-07-07T19:53:13.299Z,97168.00
2018-07-07T19:55:50.856Z,97164.00
2018-07-07T19:58:24.594Z,97161.00
2018-07-07T20:00:53.142Z,97160.00
2018-07-07T20:03:21.820Z,97171.00
2018-07-07T20:05:51.388Z,97172.00
2018-07-07T20:08:20.261Z,97167.00
2018-07-07T20:10:48.509Z,97170.00
2018-07-07T20:13:17.340Z,97170.00
2018-07-07T20:16:22.382Z,97163.00
2018-07-07T20:19:25.459Z,97164.00
2018-07-07T20:22:03.419Z,97158.00
2018-07-07T20:24:37.441Z,97165.00
2018-07-07T20:27:25.257Z,97167.00
2018-07-07T20:29:53.653Z,97159.00
2018-07-07T20:32:43.736Z,97168.00
2018-07-07T20:35:12.176Z,97161.00
2018-07-07T20:37:40.430Z,97164.00
2018-07-07T20:40:09.901Z,97171.00
2018-07-07T20:42:38.206Z,97177.00
2018-07-07T20:45:06.511Z,97172.00
2018-07-07T20:47:34.936Z,97170.00
2018-07-07T20:50:03.701Z,97168.00
2018-07-07T20:52:35.821Z,97171.00
2018-07-07T20:55:04.254Z,97181.00
2018-07-07T20:57:37.374Z,97173.00
2018-07-07T21:00:08.105Z,97171.00
2018-07-07T21:02:42.346Z,97166.00
2018-07-07T21:05:21.553Z,97177.00
2018-07-07T21:07:50.844Z,97164.00
2018-07-07T21:10:24.157Z,97169.00
2018-07-07T21:12:58.273Z,97174.00
2018-07-07T21:15:30.871Z,97176.00
2018-07-07T21:17:59.617Z,97176.00
2018-07-07T21:20:27.741Z,97171.00
2018-07-07T21:22:58.340Z,97174.00
2018-07-07T21:25:26.382Z,97176.00
2018-07-07T21:27:54.316Z,97170.00
2018-07-07T21:30:22.327Z,97169.00
2018-07-07T21:32:50.640Z,97167.00
2018-07-07T21:35:18.561Z,97170.00
2018-07-07T21:37:46.554Z,97172.00
2018-07-07T21:40:14.488Z,97170.00
2018-07-07T21:42:42.405Z,97172.00
2018-07-07T21:45:10.440Z,97169.00
2018-07-07T21:47:38.359Z,97176.00
2018-07-07T21:50:06.352Z,97175.00
2018-07-07T21:52:34.282Z,97173.00
2018-07-07T21:55:02.239Z,97172.00
2018-07-07T21:57:48.313Z,97173.00
2018-07-07T22:00:35.812Z,97168.00
2018-07-07T22:03:21.877Z,97171.00
2018-07-07T22:06:15.212Z,97176.00
2018-07-07T22:08:43.149Z,97171.00
2018-07-07T22:11:11.067Z,97164.00
2018-07-07T22:13:39.035Z,97167.00
2018-07-07T22:16:06.980Z,97174.00
2018-07-07T22:18:34.965Z,97170.00
2018-07-07T22:21:57.774Z,97170.00
2018-07-07T22:24:25.753Z,97172.00
2018-07-07T22:26:56.224Z,97165.00
2018-07-07T22:29:24.108Z,97164.00
2018-07-07T22:31:52.126Z,97166.00
2018-07-07T22:34:20.109Z,97167.00
2018-07-07T22:36:48.044Z,97162.00
2018-07-07T22:39:15.966Z,97160.00
2018-07-07T22:42:00.571Z,97158.00
2018-07-07T22:44:28.619Z,97157.00
2018-07-07T22:46:56.795Z,97156.00
2018-07-07T22:49:25.582Z,97152.00
2018-07-07T22:51:53.710Z,97154.00
2018-07-07T22:54:21.642Z,97152.00
2018-07-07T22:56:49.581Z,97142.00
2018-07-07T22:59:17.583Z,97147.00
2018-07-07T23:01:45.577Z,97147.00
2018-07-07T23:04:13.533Z,97143.00
2018-07-07T23:06:42.579Z,97144.00
2018-07-07T23:09:14.541Z,97147.00
2018-07-07T23:11:42.509Z,97149.00
2018-07-07T23:14:10.454Z,97147.00
2018-07-07T23:16:38.394Z,97137.00
2018-07-07T23:19:06.753Z,97134.00
2018-07-07T23:21:34.707Z,97132.00
2018-07-07T23:24:03.068Z,97136.00
2018-07-07T23:26:31.348Z,97132.00
2018-07-07T23:29:00.217Z,97132.00
2018-07-07T23:31:28.244Z,97135.00
2018-07-07T23:33:56.172Z,97129.00
2018-07-07T23:36:24.166Z,97127.00
2018-07-07T23:38:52.125Z,97128.00
2018-07-07T23:41:20.062Z,97131.00
2018-07-07T23:43:48.057Z,97130.00
2018-07-07T23:46:15.960Z,97133.00
2018-07-07T23:48:43.890Z,97122.00
2018-07-07T23:51:11.898Z,97124.00
2018-07-07T23:53:39.983Z,97125.00
2018-07-07T23:56:08.218Z,97126.00
2018-07-07T23:58:36.190Z,97130.00
